createdAt,value
2022-12-06T00:00:20.058Z,16.83
2022-12-06T00:02:52.867Z,16.30
2022-12-06T00:05:26.341Z,16.73
2022-12-06T00:07:59.237Z,14.73
2022-12-06T00:10:32.313Z,23.40
2022-12-06T00:13:06.787Z,26.03
2022-12-06T00:15:39.870Z,22.07
2022-12-06T00:18:12.594Z,18.73
2022-12-06T00:20:45.418Z,22.80
2022-12-06T00:23:18.368Z,17.80
2022-12-06T00:25:51.183Z,19.90
2022-12-06T00:28:24.001Z,20.05
2022-12-06T00:31:01.915Z,17.25
2022-12-06T00:33:36.535Z,19.05
2022-12-06T00:36:16.624Z,14.80
2022-12-06T00:38:50.543Z,26.93
2022-12-06T00:41:26.316Z,18.57
2022-12-06T00:43:59.152Z,11.57
2022-12-06T00:46:34.110Z,13.98
2022-12-06T00:49:10.395Z,12.98
2022-12-06T00:51:43.501Z,14.33
2022-12-06T00:54:17.012Z,11.18
2022-12-06T00:56:51.200Z,12.23
2022-12-06T00:59:24.640Z,10.45
2022-12-06T01:01:57.584Z,9.58
2022-12-06T01:04:30.777Z,14.73
2022-12-06T01:07:03.632Z,11.25
2022-12-06T01:09:36.612Z,8.08
2022-12-06T01:12:09.499Z,9.30
2022-12-06T01:14:42.570Z,9.55
2022-12-06T01:17:15.538Z,9.28
2022-12-06T01:19:48.558Z,17.17
2022-12-06T01:22:21.224Z,15.88
2022-12-06T01:24:54.207Z,20.43
2022-12-06T01:27:27.575Z,17.10
2022-12-06T01:30:00.636Z,18.87
2022-12-06T01:32:33.785Z,20.23
2022-12-06T01:35:07.987Z,9.77
2022-12-06T01:37:40.893Z,12.43
2022-12-06T01:40:14.996Z,10.00
2022-12-06T01:42:47.749Z,9.13
2022-12-06T01:45:21.220Z,9.83
2022-12-06T01:47:54.041Z,8.17
2022-12-06T01:50:33.042Z,6.10
2022-12-06T01:53:09.309Z,9.48
2022-12-06T01:55:42.665Z,4.45
2022-12-06T02:00:53.026Z,7.70
2022-12-06T02:03:29.010Z,8.43
2022-12-06T02:06:04.117Z,8.90
2022-12-06T02:08:38.024Z,6.50
2022-12-06T02:11:11.734Z,7.83
2022-12-06T02:13:44.634Z,7.53
2022-12-06T02:16:43.493Z,5.30
2022-12-06T02:19:46.504Z,4.87
2022-12-06T02:22:51.682Z,8.20
2022-12-06T02:25:44.450Z,9.98
2022-12-06T02:28:37.120Z,9.55
2022-12-06T02:31:28.805Z,13.88
2022-12-06T02:34:21.609Z,14.25
2022-12-06T02:36:59.408Z,11.78
2022-12-06T02:40:04.087Z,13.68
2022-12-06T02:45:35.179Z,17.85
2022-12-06T02:48:08.850Z,22.40
2022-12-06T02:53:19.025Z,16.42
2022-12-06T02:55:52.816Z,23.05
2022-12-06T02:58:25.667Z,18.10
2022-12-06T03:01:05.375Z,17.50
2022-12-06T03:03:54.544Z,13.75
2022-12-06T03:06:48.754Z,13.65
2022-12-06T03:09:38.926Z,12.68
2022-12-06T03:12:41.390Z,12.40
2022-12-06T03:15:55.261Z,13.78
2022-12-06T03:18:45.027Z,10.20
2022-12-06T03:21:28.207Z,19.52
2022-12-06T03:24:01.311Z,22.30
2022-12-06T03:26:36.450Z,46.50
2022-12-06T03:29:10.799Z,36.90
2022-12-06T03:31:44.480Z,18.25
2022-12-06T03:34:21.999Z,15.20
2022-12-06T03:36:55.701Z,16.93
2022-12-06T03:39:51.425Z,30.02
2022-12-06T03:42:24.364Z,30.48
2022-12-06T03:44:57.539Z,14.75
2022-12-06T03:47:43.528Z,12.03
2022-12-06T03:50:35.823Z,25.40
2022-12-06T03:53:09.126Z,17.10
2022-12-06T03:55:42.595Z,18.07
2022-12-06T03:58:15.293Z,19.55
2022-12-06T04:00:48.742Z,17.27
2022-12-06T04:03:22.102Z,17.10
2022-12-06T04:05:55.651Z,22.85
2022-12-06T04:08:28.400Z,32.50
2022-12-06T04:11:02.500Z,13.58
2022-12-06T04:13:36.695Z,14.98
2022-12-06T04:16:29.360Z,20.02
2022-12-06T04:19:03.395Z,14.00
2022-12-06T04:21:56.190Z,17.67
2022-12-06T04:24:30.435Z,16.57
2022-12-06T04:27:22.460Z,14.00
2022-12-06T04:30:14.042Z,13.98
2022-12-06T04:33:06.886Z,14.70
2022-12-06T04:35:58.786Z,10.25
2022-12-06T04:38:43.225Z,18.70
2022-12-06T04:41:18.877Z,23.00
2022-12-06T04:43:52.914Z,33.18
2022-12-06T04:48:59.571Z,27.40
2022-12-06T04:51:35.221Z,26.90
2022-12-06T04:54:09.681Z,25.40
2022-12-06T04:56:43.369Z,42.88
2022-12-06T04:59:18.971Z,49.27
2022-12-06T05:01:53.063Z,49.18
2022-12-06T05:04:27.348Z,35.55
2022-12-06T05:07:01.232Z,28.83
2022-12-06T05:09:35.237Z,24.00
2022-12-06T05:14:42.112Z,22.82
2022-12-06T05:17:15.846Z,30.62
2022-12-06T05:22:22.518Z,26.75
2022-12-06T05:27:34.379Z,20.00
2022-12-06T05:30:06.661Z,20.48
2022-12-06T05:32:41.532Z,15.80
2022-12-06T05:35:15.428Z,25.70
2022-12-06T05:40:22.295Z,16.35
2022-12-06T05:42:56.026Z,18.92
2022-12-06T05:48:02.706Z,20.17
2022-12-06T05:53:10.526Z,17.82
2022-12-06T05:58:19.320Z,41.40
2022-12-06T06:00:53.678Z,42.70
2022-12-06T06:03:27.376Z,27.10
2022-12-06T06:06:02.917Z,26.55
2022-12-06T06:08:36.955Z,28.10
2022-12-06T06:11:11.071Z,23.00
2022-12-06T06:13:45.108Z,23.00
2022-12-06T06:16:18.763Z,28.45
2022-12-06T06:21:25.514Z,20.23
2022-12-06T06:23:59.974Z,24.70
2022-12-06T06:26:33.858Z,26.15
2022-12-06T06:31:40.791Z,13.58
2022-12-06T06:34:14.595Z,18.27
2022-12-06T06:36:48.864Z,19.35
2022-12-06T06:41:55.320Z,18.60
2022-12-06T06:44:29.035Z,12.03
2022-12-06T06:47:02.763Z,17.27
2022-12-06T06:49:37.010Z,15.50
2022-12-06T06:52:10.937Z,12.60
2022-12-06T06:54:44.835Z,13.95
2022-12-06T06:57:18.801Z,22.00
2022-12-06T07:02:25.338Z,13.95
2022-12-06T07:07:32.700Z,14.07
2022-12-06T07:12:40.521Z,14.13
2022-12-06T07:15:14.507Z,11.22
2022-12-06T07:17:51.198Z,12.88
2022-12-06T07:20:24.836Z,19.55
2022-12-06T07:22:59.256Z,15.10
2022-12-06T07:25:33.719Z,20.25
2022-12-06T07:28:08.001Z,32.63
2022-12-06T07:30:42.395Z,27.67
2022-12-06T07:38:30.357Z,19.12
2022-12-06T07:41:28.062Z,22.05
2022-12-06T07:44:20.663Z,24.75
2022-12-06T07:46:55.785Z,13.43
2022-12-06T07:49:30.137Z,19.92
2022-12-06T07:52:04.067Z,20.62
2022-12-06T07:54:38.079Z,22.17
2022-12-06T07:57:11.938Z,34.92
2022-12-06T07:59:45.713Z,22.95
2022-12-06T08:02:23.306Z,17.82
2022-12-06T08:04:58.920Z,14.90
2022-12-06T08:07:33.153Z,20.00
2022-12-06T08:12:40.995Z,24.80
2022-12-06T08:15:14.921Z,17.77
2022-12-06T08:17:48.586Z,16.50
2022-12-06T08:20:22.220Z,18.27
2022-12-06T08:22:56.157Z,16.57
2022-12-06T08:28:02.591Z,23.52
2022-12-06T08:30:38.871Z,26.85
2022-12-06T08:33:12.600Z,25.02
2022-12-06T08:35:46.508Z,15.38
2022-12-06T08:38:21.122Z,23.15
2022-12-06T08:40:55.577Z,25.72
2022-12-06T08:43:29.698Z,29.32
2022-12-06T08:46:04.195Z,20.88
2022-12-06T08:48:42.814Z,17.35
2022-12-06T08:51:13.639Z,17.75
2022-12-06T08:53:47.420Z,15.63
2022-12-06T08:56:21.331Z,18.48
2022-12-06T09:01:37.349Z,21.95
2022-12-06T09:04:09.940Z,38.15
2022-12-06T09:06:45.513Z,27.55
2022-12-06T09:09:20.669Z,74.22
2022-12-06T09:11:54.800Z,41.70
2022-12-06T09:14:28.628Z,27.62
2022-12-06T09:17:03.124Z,21.75
2022-12-06T09:19:37.844Z,12.90
2022-12-06T09:22:11.636Z,18.02
2022-12-06T09:24:45.518Z,23.73
2022-12-06T09:27:21.026Z,14.53
2022-12-06T09:29:54.892Z,15.63
2022-12-06T09:32:28.678Z,16.23
2022-12-06T09:35:03.605Z,18.60
2022-12-06T09:37:38.743Z,21.33
2022-12-06T09:40:30.061Z,17.17
2022-12-06T09:43:20.749Z,22.17
2022-12-06T09:46:08.927Z,10.65
2022-12-06T09:48:59.503Z,7.17
2022-12-06T09:51:59.212Z,16.87
2022-12-06T09:54:59.907Z,6.85
2022-12-06T09:58:06.778Z,12.63
2022-12-06T10:00:48.145Z,11.28
2022-12-06T10:03:40.874Z,14.50
2022-12-06T10:06:19.938Z,19.75
2022-12-06T10:09:31.194Z,22.05
2022-12-06T10:12:37.099Z,12.90
2022-12-06T10:15:47.520Z,6.40
2022-12-06T10:18:48.782Z,14.15
2022-12-06T10:21:33.370Z,12.05
2022-12-06T10:24:45.170Z,14.70
2022-12-06T10:27:23.709Z,8.38
2022-12-06T10:30:12.675Z,16.82
2022-12-06T10:33:06.653Z,20.43
2022-12-06T10:36:02.681Z,15.95
2022-12-06T10:38:54.733Z,13.53
2022-12-06T10:41:36.635Z,16.73
2022-12-06T10:44:30.730Z,17.75
2022-12-06T10:47:13.309Z,20.62
2022-12-06T10:50:17.423Z,19.70
2022-12-06T10:53:01.829Z,15.83
2022-12-06T10:55:52.968Z,8.08
2022-12-06T10:58:35.697Z,12.03
2022-12-06T11:01:13.802Z,12.23
2022-12-06T11:03:52.387Z,18.45
2022-12-06T11:06:54.729Z,13.08
2022-12-06T11:09:46.284Z,15.03
2022-12-06T11:12:31.616Z,11.83
2022-12-06T11:15:30.835Z,14.25
2022-12-06T11:18:16.511Z,7.10
2022-12-06T11:21:19.283Z,9.75
2022-12-06T11:24:01.135Z,14.33
2022-12-06T11:26:44.725Z,21.20
2022-12-06T11:29:19.093Z,33.08
2022-12-06T11:31:58.888Z,30.68
2022-12-06T11:34:54.427Z,25.75
2022-12-06T11:37:31.590Z,18.77
2022-12-06T11:40:28.306Z,17.10
2022-12-06T11:43:06.451Z,27.22
2022-12-06T11:45:43.710Z,15.85
2022-12-06T11:48:26.308Z,27.73
2022-12-06T11:51:00.255Z,23.18
2022-12-06T11:53:42.867Z,20.23
2022-12-06T11:56:30.223Z,24.37
2022-12-06T11:59:28.967Z,17.15
2022-12-06T12:02:04.989Z,31.80
2022-12-06T12:04:46.146Z,26.12
2022-12-06T12:07:23.619Z,14.30
2022-12-06T12:10:02.954Z,17.37
2022-12-06T12:13:07.915Z,15.60
2022-12-06T12:15:53.421Z,28.30
2022-12-06T12:18:36.529Z,25.17
2022-12-06T12:21:10.584Z,30.52
2022-12-06T12:26:24.458Z,25.88
2022-12-06T12:29:20.039Z,23.90
2022-12-06T12:32:01.315Z,30.15
2022-12-06T12:34:40.117Z,15.45
2022-12-06T12:37:16.181Z,31.70
2022-12-06T12:39:55.286Z,31.55
2022-12-06T12:42:35.123Z,39.23
2022-12-06T12:45:13.766Z,26.35
2022-12-06T12:48:03.112Z,14.60
2022-12-06T12:50:37.843Z,21.73
2022-12-06T12:53:16.691Z,25.17
2022-12-06T12:55:50.376Z,24.52
2022-12-06T13:00:59.054Z,21.05
2022-12-06T13:06:10.929Z,19.40
2022-12-06T13:08:45.019Z,26.00
2022-12-06T13:11:19.539Z,34.65
2022-12-06T13:16:31.245Z,17.37
2022-12-06T13:19:05.383Z,18.37
2022-12-06T13:21:43.774Z,26.62
2022-12-06T13:24:26.901Z,25.75
2022-12-06T13:27:11.181Z,31.87
2022-12-06T13:30:01.891Z,25.65
2022-12-06T13:32:46.940Z,34.00
2022-12-06T13:35:31.107Z,53.63
2022-12-06T13:38:26.665Z,56.40
2022-12-06T13:43:40.325Z,32.78
2022-12-06T13:46:26.793Z,33.60
2022-12-06T13:49:07.150Z,50.85
2022-12-06T13:51:44.660Z,41.05
2022-12-06T13:54:25.298Z,30.72
2022-12-06T13:57:01.070Z,34.88
2022-12-06T13:59:39.421Z,41.88
2022-12-06T14:02:43.460Z,34.20
2022-12-06T14:08:56.284Z,33.00
2022-12-06T14:11:36.596Z,26.90
2022-12-06T14:14:18.215Z,31.23
2022-12-06T14:16:59.630Z,45.40
2022-12-06T14:19:51.164Z,42.13
2022-12-06T14:22:34.910Z,29.18
2022-12-06T14:25:19.289Z,26.02
2022-12-06T14:27:56.423Z,24.85
2022-12-06T14:30:30.480Z,23.80
2022-12-06T14:33:08.278Z,24.30
2022-12-06T14:35:42.267Z,18.30
2022-12-06T14:41:23.481Z,23.75
2022-12-06T14:43:57.371Z,25.52
2022-12-06T14:46:31.199Z,27.58
2022-12-06T14:49:23.191Z,36.93
2022-12-06T14:51:57.080Z,32.10
2022-12-06T14:54:43.168Z,16.55
2022-12-06T14:57:29.624Z,21.95
2022-12-06T15:00:16.125Z,27.42
2022-12-06T15:03:06.514Z,17.37
2022-12-06T15:05:45.574Z,15.28
2022-12-06T15:08:33.330Z,23.62
2022-12-06T15:11:38.552Z,25.72
2022-12-06T15:14:26.263Z,21.55
2022-12-06T15:17:06.876Z,15.38
2022-12-06T15:19:48.440Z,26.77
2022-12-06T15:22:29.222Z,23.47
2022-12-06T15:25:04.221Z,33.13
2022-12-06T15:27:38.538Z,29.57
2022-12-06T15:30:14.977Z,32.88
2022-12-06T15:32:49.371Z,24.77
2022-12-06T15:35:23.489Z,30.20
2022-12-06T15:37:57.757Z,21.87
2022-12-06T15:40:32.053Z,20.43
2022-12-06T15:43:07.242Z,33.23
2022-12-06T15:45:42.060Z,51.53
2022-12-06T15:48:16.186Z,57.43
2022-12-06T15:50:50.973Z,31.07
2022-12-06T15:53:26.199Z,33.28
2022-12-06T15:56:00.777Z,28.73
2022-12-06T15:58:35.059Z,35.23
2022-12-06T16:03:47.673Z,40.30
2022-12-06T16:06:23.855Z,43.38
2022-12-06T16:08:58.089Z,31.52
